createdAt,value
2019-06-15T00:03:55.338Z,99.99
2019-06-15T00:08:51.360Z,99.99
2019-06-15T00:13:46.996Z,99.99
2019-06-15T00:18:43.481Z,99.99
2019-06-15T00:23:38.906Z,99.99
2019-06-15T00:28:35.778Z,99.99
2019-06-15T00:33:31.200Z,99.99
2019-06-15T00:38:26.943Z,99.99
2019-06-15T00:43:23.014Z,99.99
2019-06-15T00:48:18.812Z,99.99
2019-06-15T00:53:15.191Z,99.99
2019-06-15T00:58:10.917Z,99.99
2019-06-15T01:03:07.009Z,99.99
2019-06-15T01:08:02.796Z,99.99
2019-06-15T01:12:58.869Z,99.99
2019-06-15T01:17:54.683Z,99.99
2019-06-15T01:22:50.613Z,99.99
2019-06-15T01:27:47.231Z,99.99
2019-06-15T01:32:42.900Z,99.99
2019-06-15T01:37:38.813Z,99.99
2019-06-15T01:42:36.155Z,99.99
2019-06-15T01:47:32.643Z,99.99
2019-06-15T01:52:28.985Z,99.99
2019-06-15T01:57:24.466Z,99.99
2019-06-15T02:02:20.111Z,99.99
2019-06-15T02:07:15.876Z,99.99
2019-06-15T02:12:11.901Z,99.99
2019-06-15T02:17:08.153Z,99.99
2019-06-15T02:22:04.568Z,99.99
2019-06-15T02:27:01.362Z,99.99
2019-06-15T02:31:57.065Z,99.99
2019-06-15T02:36:53.118Z,99.99
2019-06-15T02:41:48.793Z,99.99
2019-06-15T02:46:44.353Z,99.99
2019-06-15T02:51:40.174Z,99.99
2019-06-15T02:56:36.069Z,99.99
2019-06-15T03:01:31.662Z,99.99
2019-06-15T03:06:28.341Z,99.99
2019-06-15T03:11:24.279Z,99.99
2019-06-15T03:16:20.275Z,99.99
2019-06-15T03:21:16.026Z,99.99
2019-06-15T03:26:13.259Z,99.99
2019-06-15T03:31:09.918Z,99.99
2019-06-15T03:36:05.689Z,99.99
2019-06-15T03:41:01.726Z,99.99
2019-06-15T03:45:58.835Z,99.99
2019-06-15T03:50:54.636Z,99.99
2019-06-15T03:55:51.853Z,99.99
2019-06-15T04:00:48.697Z,99.99
2019-06-15T04:05:44.556Z,99.99
2019-06-15T04:10:40.575Z,99.99
2019-06-15T04:15:36.461Z,99.99
2019-06-15T04:20:32.535Z,99.99
2019-06-15T04:25:28.839Z,99.99
2019-06-15T04:30:25.122Z,99.99
2019-06-15T04:35:21.302Z,99.99
2019-06-15T04:40:17.793Z,99.99
2019-06-15T04:45:14.443Z,99.99
2019-06-15T04:50:10.541Z,99.99
2019-06-15T04:55:07.023Z,99.99
2019-06-15T05:00:04.337Z,99.99
2019-06-15T05:05:00.160Z,99.99
2019-06-15T05:09:56.811Z,99.99
2019-06-15T05:14:52.458Z,99.99
2019-06-15T05:19:49.355Z,99.99
2019-06-15T05:24:45.647Z,99.99
2019-06-15T05:29:43.319Z,99.99
2019-06-15T05:34:41.668Z,99.99
2019-06-15T05:39:37.533Z,99.99
2019-06-15T05:44:32.575Z,99.99
2019-06-15T05:49:28.434Z,99.99
2019-06-15T05:59:28.253Z,99.99
2019-06-15T06:04:23.647Z,99.99
2019-06-15T06:09:19.681Z,99.99
2019-06-15T06:14:15.369Z,99.99
2019-06-15T06:19:13.148Z,99.99
2019-06-15T06:24:10.656Z,99.99
2019-06-15T06:29:06.071Z,99.99
2019-06-15T06:34:02.532Z,99.99
2019-06-15T06:38:59.017Z,99.99
2019-06-15T06:43:55.192Z,99.99
2019-06-15T06:48:54.044Z,99.99
2019-06-15T06:58:52.825Z,99.99
2019-06-15T07:03:49.332Z,99.99
2019-06-15T07:08:48.027Z,99.99
2019-06-15T07:13:44.649Z,99.99
2019-06-15T07:18:40.607Z,99.99
2019-06-15T07:23:40.500Z,99.99
2019-06-15T07:28:36.773Z,99.99
2019-06-15T07:33:34.546Z,99.99
2019-06-15T07:38:31.368Z,99.99
2019-06-15T07:43:26.764Z,99.99
2019-06-15T07:48:23.806Z,99.99
2019-06-15T07:53:20.885Z,99.99
2019-06-15T07:58:24.564Z,99.99
2019-06-15T08:08:16.334Z,99.99
2019-06-15T08:13:12.887Z,99.99
2019-06-15T08:18:09.870Z,99.99
2019-06-15T08:23:06.159Z,99.99
2019-06-15T08:28:01.650Z,99.99
2019-06-15T08:32:57.517Z,99.99
2019-06-15T08:37:54.289Z,99.99
2019-06-15T08:42:49.784Z,99.99
2019-06-15T08:47:46.657Z,99.99
2019-06-15T08:52:43.242Z,99.99
2019-06-15T08:57:40.778Z,99.99
2019-06-15T09:02:35.901Z,99.99
2019-06-15T09:07:32.736Z,99.99
2019-06-15T09:12:28.740Z,99.99
2019-06-15T09:22:24.993Z,99.99
2019-06-15T09:27:20.978Z,99.99
2019-06-15T09:32:17.683Z,99.99
2019-06-15T09:37:16.805Z,99.99
2019-06-15T09:42:13.416Z,99.99
2019-06-15T09:47:16.657Z,99.99
2019-06-15T09:57:16.661Z,99.99
2019-06-15T10:02:12.698Z,99.99
2019-06-15T10:07:09.474Z,99.99
2019-06-15T10:12:06.968Z,99.99
2019-06-15T10:17:06.088Z,99.99
2019-06-15T10:22:01.652Z,99.99
2019-06-15T10:26:59.601Z,99.99
2019-06-15T10:31:56.276Z,99.99
2019-06-15T10:36:52.357Z,99.99
2019-06-15T10:41:48.933Z,99.99
2019-06-15T10:46:47.833Z,99.99
2019-06-15T10:51:43.371Z,99.99
2019-06-15T10:56:40.367Z,99.99
2019-06-15T11:01:36.436Z,99.99
2019-06-15T11:06:32.634Z,99.99
2019-06-15T11:11:28.076Z,99.99
2019-06-15T11:16:25.208Z,99.99
2019-06-15T11:21:23.637Z,99.99
2019-06-15T11:26:19.099Z,99.99
2019-06-15T11:31:15.773Z,99.99
2019-06-15T11:41:15.726Z,99.99
2019-06-15T11:46:13.416Z,99.99
2019-06-15T11:51:11.071Z,99.99
2019-06-15T11:56:10.669Z,99.99
2019-06-15T12:01:06.953Z,99.99
2019-06-15T12:06:06.140Z,99.99
2019-06-15T12:11:02.377Z,99.99
2019-06-15T12:15:59.017Z,98.05
2019-06-15T12:20:54.212Z,96.36
2019-06-15T12:25:52.510Z,94.82
2019-06-15T12:30:48.436Z,92.50
2019-06-15T12:35:45.157Z,90.28
2019-06-15T12:40:39.754Z,91.73
2019-06-15T12:45:36.187Z,92.26
2019-06-15T12:50:30.805Z,93.42
2019-06-15T12:55:27.690Z,92.84
2019-06-15T13:00:24.643Z,89.70
2019-06-15T13:05:23.841Z,87.71
2019-06-15T13:10:20.838Z,87.04
2019-06-15T13:15:19.118Z,84.72
2019-06-15T13:20:14.943Z,83.27
2019-06-15T13:25:12.663Z,80.57
2019-06-15T13:30:09.405Z,80.95
2019-06-15T13:45:04.627Z,80.66
2019-06-15T13:50:01.522Z,82.07
2019-06-15T13:54:58.520Z,81.49
2019-06-15T13:59:53.751Z,83.09
2019-06-15T14:04:51.229Z,83.77
2019-06-15T14:09:50.112Z,84.83
2019-06-15T14:14:45.831Z,85.50
2019-06-15T14:19:42.150Z,84.16
2019-06-15T14:24:38.160Z,83.39
2019-06-15T14:29:34.641Z,83.83
2019-06-15T14:34:30.438Z,84.74
2019-06-15T14:39:27.425Z,82.26
2019-06-15T14:44:22.720Z,82.84
2019-06-15T14:49:20.515Z,82.65
2019-06-15T14:54:18.225Z,82.36
2019-06-15T14:59:14.888Z,83.29
2019-06-15T15:04:13.373Z,84.16
2019-06-15T15:14:17.214Z,83.39
2019-06-15T15:24:11.744Z,83.09
2019-06-15T15:29:08.179Z,82.61
2019-06-15T15:34:07.705Z,85.22
2019-06-15T15:44:04.239Z,83.81
2019-06-15T15:54:01.217Z,83.96
2019-06-15T15:58:59.669Z,84.44
2019-06-15T16:03:57.380Z,83.96
2019-06-15T16:08:53.753Z,83.00
2019-06-15T16:13:50.214Z,81.74
2019-06-15T16:18:47.206Z,83.48
2019-06-15T16:23:46.270Z,84.25
2019-06-15T16:28:42.904Z,83.77
2019-06-15T16:33:38.057Z,84.59
2019-06-15T16:43:37.044Z,87.10
2019-06-15T16:48:33.347Z,87.01
2019-06-15T16:53:30.325Z,87.20
2019-06-15T17:03:29.022Z,87.20
2019-06-15T17:08:24.823Z,86.62
2019-06-15T17:13:25.838Z,87.20
2019-06-15T17:18:20.542Z,86.43
2019-06-15T17:23:18.358Z,86.29
2019-06-15T17:28:13.979Z,85.81
2019-06-15T17:33:10.915Z,86.91
2019-06-15T17:43:07.234Z,87.01
2019-06-15T17:48:06.474Z,85.08
2019-06-15T17:53:02.116Z,86.24
2019-06-15T17:57:59.351Z,86.72
2019-06-15T18:02:57.594Z,86.96
2019-06-15T18:07:52.871Z,87.35
2019-06-15T18:12:49.583Z,86.96
2019-06-15T18:17:49.046Z,87.12
2019-06-15T18:22:46.810Z,88.85
2019-06-15T18:27:41.702Z,89.23
2019-06-15T18:32:40.634Z,90.58
2019-06-15T18:37:37.105Z,91.83
2019-06-15T18:42:33.744Z,91.83
2019-06-15T18:47:30.248Z,90.83
2019-06-15T18:52:29.047Z,92.08
2019-06-15T18:57:26.938Z,91.93
2019-06-15T19:07:26.852Z,88.32
2019-06-15T19:12:22.220Z,86.98
2019-06-15T19:17:20.926Z,87.36
2019-06-15T19:22:18.180Z,88.13
2019-06-15T19:27:16.168Z,88.18
2019-06-15T19:32:17.096Z,88.67
2019-06-15T19:37:14.260Z,89.72
2019-06-15T19:42:09.381Z,90.50
2019-06-15T19:47:07.168Z,91.27
2019-06-15T20:02:03.057Z,93.72
2019-06-15T20:06:58.547Z,95.55
2019-06-15T20:11:56.017Z,96.32
2019-06-15T20:16:51.367Z,98.05
2019-06-15T20:21:49.415Z,97.76
2019-06-15T20:26:45.607Z,98.82
2019-06-15T20:31:41.427Z,98.58
2019-06-15T20:36:39.312Z,99.99
2019-06-15T20:41:37.333Z,99.99
2019-06-15T21:01:37.736Z,99.99
